createdAt,value
2023-05-02T00:01:58.920Z,8.41
2023-05-02T00:04:25.951Z,8.37
2023-05-02T00:06:53.886Z,8.33
2023-05-02T00:09:21.568Z,8.32
2023-05-02T00:11:48.529Z,8.31
2023-05-02T00:14:15.436Z,8.28
2023-05-02T00:16:42.481Z,8.22
2023-05-02T00:19:09.468Z,8.21
2023-05-02T00:21:36.394Z,8.25
2023-05-02T00:24:03.303Z,8.24
2023-05-02T00:26:31.262Z,8.21
2023-05-02T00:28:58.746Z,8.17
2023-05-02T00:31:25.939Z,8.15
2023-05-02T00:33:53.400Z,8.11
2023-05-02T00:36:20.277Z,8.06
2023-05-02T00:38:47.219Z,8.01
2023-05-02T00:41:14.338Z,7.94
2023-05-02T00:43:41.407Z,7.85
2023-05-02T00:46:08.832Z,7.79
2023-05-02T00:48:36.485Z,7.75
2023-05-02T00:51:05.595Z,7.71
2023-05-02T00:53:32.518Z,7.74
2023-05-02T00:55:59.966Z,7.79
2023-05-02T00:58:26.897Z,7.81
2023-05-02T01:01:04.400Z,7.80
2023-05-02T01:03:49.919Z,7.74
2023-05-02T01:06:38.056Z,7.69
2023-05-02T01:09:17.726Z,7.61
2023-05-02T01:12:05.799Z,7.53
2023-05-02T01:14:43.267Z,7.48
2023-05-02T01:17:12.377Z,7.40
2023-05-02T01:19:45.041Z,7.34
2023-05-02T01:22:12.103Z,7.30
2023-05-02T01:25:06.899Z,7.28
2023-05-02T01:28:09.448Z,7.32
2023-05-02T01:30:36.975Z,7.38
2023-05-02T01:33:04.009Z,7.39
2023-05-02T01:35:32.200Z,7.37
2023-05-02T01:37:59.194Z,7.34
2023-05-02T01:40:26.650Z,7.27
2023-05-02T01:42:53.956Z,7.20
2023-05-02T01:45:21.792Z,7.12
2023-05-02T01:47:48.991Z,7.06
2023-05-02T01:50:19.218Z,6.99
2023-05-02T01:52:46.049Z,6.95
2023-05-02T01:55:14.786Z,6.98
2023-05-02T01:57:43.378Z,7.05
2023-05-02T02:00:11.265Z,7.10
2023-05-02T02:02:41.704Z,7.12
2023-05-02T02:05:09.014Z,7.11
2023-05-02T02:07:37.184Z,7.08
2023-05-02T02:10:04.304Z,7.05
2023-05-02T02:12:32.314Z,6.99
2023-05-02T02:15:28.629Z,6.93
2023-05-02T02:18:17.935Z,6.84
2023-05-02T02:20:45.425Z,6.78
2023-05-02T02:23:12.425Z,6.72
2023-05-02T02:25:39.385Z,6.73
2023-05-02T02:28:07.676Z,6.78
2023-05-02T02:30:34.857Z,6.79
2023-05-02T02:33:01.837Z,6.77
2023-05-02T02:35:31.862Z,6.72
2023-05-02T02:38:03.628Z,6.66
2023-05-02T02:40:33.109Z,6.61
2023-05-02T02:43:12.245Z,6.57
2023-05-02T02:45:50.168Z,6.52
2023-05-02T02:48:29.163Z,6.47
2023-05-02T02:51:02.319Z,6.42
2023-05-02T02:53:47.068Z,6.44
2023-05-02T02:56:28.685Z,6.47
2023-05-02T02:59:03.442Z,6.51
2023-05-02T03:01:31.934Z,6.48
2023-05-02T03:03:59.098Z,6.47
2023-05-02T03:06:26.229Z,6.46
2023-05-02T03:08:53.737Z,6.42
2023-05-02T03:11:23.382Z,6.38
2023-05-02T03:13:50.515Z,6.34
2023-05-02T03:16:37.301Z,6.31
2023-05-02T03:19:06.130Z,6.33
2023-05-02T03:21:33.376Z,6.41
2023-05-02T03:24:02.276Z,6.48
2023-05-02T03:26:29.657Z,6.49
2023-05-02T03:28:57.389Z,6.50
2023-05-02T03:31:26.645Z,6.50
2023-05-02T03:33:54.645Z,6.49
2023-05-02T03:36:22.410Z,6.48
2023-05-02T03:38:52.066Z,6.44
2023-05-02T03:41:21.146Z,6.40
2023-05-02T03:43:50.000Z,6.37
2023-05-02T03:46:18.092Z,6.44
2023-05-02T03:48:46.735Z,6.55
2023-05-02T03:51:14.072Z,6.63
2023-05-02T03:53:42.209Z,6.67
2023-05-02T03:56:09.125Z,6.70
2023-05-02T03:58:43.037Z,6.73
2023-05-02T04:01:15.516Z,6.75
2023-05-02T04:03:44.375Z,6.77
2023-05-02T04:06:13.485Z,6.78
2023-05-02T04:08:42.730Z,6.79
2023-05-02T04:11:09.750Z,6.82
2023-05-02T04:13:36.832Z,6.88
2023-05-02T04:16:04.894Z,6.99
2023-05-02T04:18:34.570Z,7.07
2023-05-02T04:21:03.479Z,7.13
2023-05-02T04:23:31.259Z,7.19
2023-05-02T04:26:01.007Z,7.23
2023-05-02T04:28:36.764Z,7.29
2023-05-02T04:31:05.000Z,7.35
2023-05-02T04:33:32.628Z,7.43
2023-05-02T04:35:59.781Z,7.50
2023-05-02T04:38:27.657Z,7.53
2023-05-02T04:40:57.475Z,7.59
2023-05-02T04:43:33.535Z,7.73
2023-05-02T04:46:02.360Z,7.94
2023-05-02T04:48:33.912Z,8.14
2023-05-02T04:51:01.098Z,8.30
2023-05-02T04:53:29.569Z,8.47
2023-05-02T04:55:57.551Z,8.63
2023-05-02T04:58:24.368Z,8.80
2023-05-02T05:01:06.848Z,8.94
2023-05-02T05:03:36.279Z,8.98
2023-05-02T05:06:04.556Z,9.03
2023-05-02T05:08:34.377Z,9.13
2023-05-02T05:11:04.846Z,9.22
2023-05-02T05:13:32.052Z,9.21
2023-05-02T05:16:48.451Z,9.26
2023-05-02T05:19:15.561Z,9.32
2023-05-02T05:21:42.567Z,9.45
2023-05-02T05:24:09.614Z,9.61
2023-05-02T05:26:36.641Z,9.73
2023-05-02T05:29:04.038Z,9.77
2023-05-02T05:31:36.886Z,9.84
2023-05-02T05:34:04.873Z,9.91
2023-05-02T05:36:32.553Z,9.96
2023-05-02T05:38:59.469Z,10.04
2023-05-02T05:41:26.961Z,10.13
2023-05-02T05:44:00.011Z,10.23
2023-05-02T05:46:27.927Z,10.35
2023-05-02T05:48:55.156Z,10.50
2023-05-02T05:51:22.134Z,10.66
2023-05-02T05:53:49.686Z,10.80
2023-05-02T05:56:16.766Z,10.93
2023-05-02T05:58:55.256Z,11.11
2023-05-02T06:01:22.310Z,11.23
2023-05-02T06:03:49.652Z,11.31
2023-05-02T06:06:18.061Z,11.43
2023-05-02T06:08:44.940Z,11.58
2023-05-02T06:11:12.143Z,11.73
2023-05-02T06:13:39.216Z,11.88
2023-05-02T06:16:06.796Z,12.02
2023-05-02T06:26:15.916Z,12.54
2023-05-02T06:28:42.857Z,12.67
2023-05-02T06:31:09.777Z,12.80
2023-05-02T06:33:36.943Z,12.92
2023-05-02T06:36:06.292Z,13.05
2023-05-02T06:38:33.289Z,13.17
2023-05-02T06:41:00.319Z,13.25
2023-05-02T06:43:27.577Z,13.33
2023-05-02T06:45:55.771Z,13.42
2023-05-02T06:48:22.725Z,13.51
2023-05-02T06:50:49.809Z,13.61
2023-05-02T06:53:16.797Z,13.72
2023-05-02T06:55:48.533Z,13.87
2023-05-02T06:58:16.210Z,14.07
2023-05-02T07:00:43.199Z,14.26
2023-05-02T07:03:11.504Z,14.44
2023-05-02T07:05:38.673Z,14.60
2023-05-02T07:08:06.014Z,14.74
2023-05-02T07:10:33.061Z,14.85
2023-05-02T07:13:00.056Z,14.89
2023-05-02T07:15:26.996Z,14.98
2023-05-02T07:17:53.960Z,15.10
2023-05-02T07:20:20.893Z,15.22
2023-05-02T07:22:47.775Z,15.35
2023-05-02T07:25:14.715Z,15.44
2023-05-02T07:27:41.676Z,15.52
2023-05-02T07:30:08.854Z,15.64
2023-05-02T07:32:35.788Z,15.77
2023-05-02T07:35:02.826Z,15.89
2023-05-02T07:37:34.603Z,16.04
2023-05-02T07:40:02.157Z,16.21
2023-05-02T07:42:30.923Z,16.33
2023-05-02T07:44:58.620Z,16.47
2023-05-02T07:47:27.045Z,16.65
2023-05-02T07:49:54.396Z,16.84
2023-05-02T07:52:21.483Z,17.00
2023-05-02T07:54:51.190Z,17.12
2023-05-02T07:57:20.638Z,17.23
2023-05-02T07:59:48.088Z,17.31
2023-05-02T08:02:17.758Z,17.39
2023-05-02T08:11:21.856Z,17.92
2023-05-02T08:13:49.549Z,18.07
2023-05-02T08:16:16.590Z,18.24
2023-05-02T08:18:43.516Z,18.39
2023-05-02T08:21:11.020Z,18.52
2023-05-02T08:23:38.041Z,18.66
2023-05-02T08:26:05.203Z,18.81
2023-05-02T08:28:33.722Z,18.96
2023-05-02T08:31:00.773Z,19.11
2023-05-02T08:33:27.743Z,19.23
2023-05-02T08:35:54.683Z,19.33
2023-05-02T08:38:21.819Z,19.43
2023-05-02T08:40:48.810Z,19.54
2023-05-02T08:43:16.715Z,19.62
2023-05-02T08:45:44.693Z,19.72
2023-05-02T08:48:13.409Z,19.76
2023-05-02T08:50:45.692Z,19.86
2023-05-02T08:53:13.660Z,19.96
2023-05-02T08:55:41.358Z,20.03
2023-05-02T08:58:09.452Z,20.04
2023-05-02T09:00:39.031Z,20.02
2023-05-02T09:03:11.972Z,20.07
2023-05-02T09:05:41.005Z,20.19
2023-05-02T09:08:08.493Z,20.34
2023-05-02T09:10:39.108Z,20.45
2023-05-02T09:13:28.057Z,20.54
2023-05-02T09:15:59.928Z,20.62
2023-05-02T09:18:34.468Z,20.71
2023-05-02T09:21:02.023Z,20.78
2023-05-02T09:23:36.573Z,20.83
2023-05-02T09:26:13.455Z,20.93
2023-05-02T09:28:44.088Z,21.06
2023-05-02T09:31:13.044Z,21.17
2023-05-02T09:33:40.017Z,21.23
2023-05-02T09:36:07.596Z,21.25
2023-05-02T09:38:34.765Z,21.32
2023-05-02T09:41:03.758Z,21.40
2023-05-02T09:43:33.840Z,21.46
2023-05-02T09:46:06.026Z,21.51
2023-05-02T09:48:53.868Z,21.55
2023-05-02T09:51:20.946Z,21.59
2023-05-02T09:53:47.841Z,21.65
2023-05-02T09:56:15.108Z,21.71
2023-05-02T09:58:42.327Z,21.78
2023-05-02T10:01:14.686Z,21.87
2023-05-02T10:03:41.887Z,21.95
2023-05-02T10:06:08.986Z,22.03
2023-05-02T10:08:35.932Z,22.15
2023-05-02T10:11:03.758Z,22.30
2023-05-02T10:13:34.667Z,22.47
2023-05-02T10:16:03.047Z,22.63
2023-05-02T10:21:32.639Z,22.92
2023-05-02T10:25:34.280Z,22.97
2023-05-02T10:28:01.197Z,22.92
2023-05-02T10:30:28.073Z,22.88
2023-05-02T10:32:55.028Z,22.87
2023-05-02T10:35:22.027Z,22.90
2023-05-02T10:37:49.910Z,22.97
2023-05-02T10:40:16.894Z,23.04
2023-05-02T10:42:46.131Z,23.11
2023-05-02T10:45:29.894Z,23.16
2023-05-02T10:48:17.071Z,23.15
2023-05-02T10:50:51.561Z,23.13
2023-05-02T10:53:36.755Z,23.09
2023-05-02T10:56:22.573Z,23.09
2023-05-02T10:58:50.828Z,23.11
2023-05-02T11:01:30.814Z,23.11
2023-05-02T11:04:05.234Z,23.08
2023-05-02T11:06:34.502Z,23.04
2023-05-02T11:09:18.014Z,23.06
2023-05-02T11:11:45.309Z,23.14
2023-05-02T11:14:33.064Z,23.19
2023-05-02T11:17:00.122Z,23.21
2023-05-02T11:19:53.810Z,23.25
2023-05-02T11:22:20.795Z,23.30
2023-05-02T11:24:48.478Z,23.31
2023-05-02T11:27:31.105Z,23.32
2023-05-02T11:29:58.452Z,23.32
2023-05-02T11:32:27.527Z,23.33
2023-05-02T11:34:56.160Z,23.34
2023-05-02T11:37:23.076Z,23.32
2023-05-02T11:39:51.674Z,23.31
2023-05-02T11:42:36.858Z,23.26
2023-05-02T11:45:04.340Z,23.16
2023-05-02T11:47:33.062Z,23.11
2023-05-02T11:50:00.977Z,23.14
2023-05-02T11:52:27.955Z,23.20
2023-05-02T11:54:57.808Z,23.23
2023-05-02T11:57:25.697Z,23.28
2023-05-02T11:59:53.295Z,23.33
2023-05-02T12:02:21.506Z,23.38
2023-05-02T12:04:48.511Z,23.44
2023-05-02T12:07:15.552Z,23.48
2023-05-02T12:09:53.313Z,23.51
2023-05-02T12:19:39.442Z,23.75
2023-05-02T12:22:08.022Z,23.78
2023-05-02T12:24:36.310Z,23.79
2023-05-02T12:27:10.872Z,23.81
2023-05-02T12:29:47.911Z,23.81
2023-05-02T12:32:15.352Z,23.83
2023-05-02T12:34:42.388Z,23.82
2023-05-02T12:37:09.458Z,23.77
2023-05-02T12:39:37.634Z,23.70
2023-05-02T12:42:12.055Z,23.67
2023-05-02T12:44:40.002Z,23.69
2023-05-02T12:47:08.267Z,23.68
2023-05-02T12:49:58.214Z,23.63
2023-05-02T12:52:47.259Z,23.59
2023-05-02T12:55:21.803Z,23.56
2023-05-02T12:57:48.830Z,23.52
2023-05-02T13:00:18.980Z,23.46
2023-05-02T13:02:46.085Z,23.41
2023-05-02T13:05:17.002Z,23.38
2023-05-02T13:07:43.852Z,23.35
2023-05-02T13:10:12.279Z,23.32
2023-05-02T13:12:39.801Z,23.29
2023-05-02T13:15:07.967Z,23.29
2023-05-02T13:17:35.478Z,23.30
2023-05-02T13:20:03.748Z,23.33
2023-05-02T13:22:31.151Z,23.33
2023-05-02T13:24:58.185Z,23.30
2023-05-02T13:27:25.376Z,23.26
2023-05-02T13:29:52.293Z,23.25
2023-05-02T13:32:19.933Z,23.26
2023-05-02T13:34:46.872Z,23.29
2023-05-02T13:37:14.028Z,23.30
2023-05-02T13:39:40.882Z,23.30
2023-05-02T13:42:08.178Z,23.27
2023-05-02T13:44:35.071Z,23.21
2023-05-02T13:47:02.253Z,23.14
2023-05-02T13:49:30.128Z,23.09
2023-05-02T13:51:59.708Z,23.03
2023-05-02T13:54:27.175Z,22.96
2023-05-02T13:56:54.300Z,22.91
2023-05-02T13:59:21.256Z,22.88
2023-05-02T14:01:48.209Z,22.85
2023-05-02T14:04:18.033Z,22.83
2023-05-02T14:06:45.223Z,22.80
2023-05-02T14:09:12.265Z,22.77
2023-05-02T14:11:39.168Z,22.75
2023-05-02T14:14:06.074Z,22.73
2023-05-02T14:16:35.371Z,22.71
2023-05-02T14:19:02.282Z,22.69
2023-05-02T14:21:32.060Z,22.66
2023-05-02T14:24:00.513Z,22.63
2023-05-02T14:26:27.456Z,22.60
2023-05-02T14:28:57.396Z,22.57
2023-05-02T14:31:25.430Z,22.55
2023-05-02T14:33:52.459Z,22.52
2023-05-02T14:36:19.667Z,22.49
2023-05-02T14:38:46.624Z,22.47
2023-05-02T14:41:13.446Z,22.44
2023-05-02T14:43:40.374Z,22.39
2023-05-02T14:46:07.343Z,22.35
2023-05-02T14:48:34.243Z,22.32
2023-05-02T14:51:04.276Z,22.30
2023-05-02T14:53:31.652Z,22.29
2023-05-02T14:55:58.654Z,22.28
2023-05-02T14:58:25.739Z,22.27
2023-05-02T15:00:52.667Z,22.25
2023-05-02T15:03:19.903Z,22.22
2023-05-02T15:05:46.984Z,22.19
2023-05-02T15:08:14.118Z,22.16
2023-05-02T15:10:41.050Z,22.14
2023-05-02T15:13:09.039Z,22.11
2023-05-02T15:15:37.329Z,22.09
2023-05-02T15:18:04.628Z,22.07
2023-05-02T15:20:31.712Z,22.05
2023-05-02T15:23:03.471Z,22.01
2023-05-02T15:25:31.299Z,21.96
2023-05-02T15:27:58.219Z,21.92
2023-05-02T15:30:25.646Z,21.87
2023-05-02T15:32:52.689Z,21.83
2023-05-02T15:35:19.632Z,21.77
2023-05-02T15:37:46.507Z,21.74
2023-05-02T15:40:14.601Z,21.71
2023-05-02T15:42:42.027Z,21.67
2023-05-02T15:45:11.484Z,21.62
2023-05-02T15:47:38.467Z,21.58
2023-05-02T15:50:10.798Z,21.55
2023-05-02T15:52:37.671Z,21.53
2023-05-02T15:55:05.398Z,21.50
2023-05-02T15:57:32.221Z,21.47
2023-05-02T15:59:59.452Z,21.44
2023-05-02T16:02:26.921Z,21.40
2023-05-02T16:04:53.729Z,21.36
2023-05-02T16:07:20.698Z,21.31
2023-05-02T16:09:47.613Z,21.26
2023-05-02T16:12:14.888Z,21.23
2023-05-02T16:14:41.821Z,21.19
2023-05-02T16:17:08.809Z,21.14
2023-05-02T16:19:35.712Z,21.07
2023-05-02T16:22:02.992Z,21.01
2023-05-02T16:24:29.984Z,20.96
2023-05-02T16:26:56.840Z,20.88
2023-05-02T16:29:23.816Z,20.83
2023-05-02T16:31:50.845Z,20.77
2023-05-02T16:34:17.908Z,20.71
2023-05-02T16:36:45.180Z,20.65
2023-05-02T16:39:12.211Z,20.59
2023-05-02T16:41:39.134Z,20.53
2023-05-02T16:44:06.504Z,20.46
2023-05-02T16:46:33.581Z,20.42
2023-05-02T16:49:01.003Z,20.38
2023-05-02T16:51:28.139Z,20.33
2023-05-02T16:53:55.044Z,20.28
2023-05-02T16:56:21.906Z,20.24
2023-05-02T16:58:48.925Z,20.18
2023-05-02T17:01:15.930Z,20.12
2023-05-02T17:03:42.889Z,20.06
2023-05-02T17:06:10.008Z,20.00
2023-05-02T17:08:36.968Z,19.95
2023-05-02T17:11:04.042Z,19.89
2023-05-02T17:13:31.725Z,19.84
2023-05-02T17:15:59.248Z,19.79
2023-05-02T17:18:26.859Z,19.73
2023-05-02T17:20:54.900Z,19.68
2023-05-02T17:23:22.353Z,19.65
2023-05-02T17:25:49.377Z,19.60
2023-05-02T17:28:16.860Z,19.56
2023-05-02T17:30:43.996Z,19.51
2023-05-02T17:34:16.913Z,19.47
2023-05-02T17:36:44.852Z,19.40
2023-05-02T17:39:13.357Z,19.37
2023-05-02T17:41:40.423Z,19.32
2023-05-02T17:44:09.674Z,19.27
2023-05-02T17:46:36.640Z,19.24
2023-05-02T17:49:03.734Z,19.21
2023-05-02T17:51:30.600Z,19.19
2023-05-02T17:53:57.579Z,19.17
2023-05-02T17:56:24.601Z,19.14
2023-05-02T17:58:52.047Z,19.11
2023-05-02T18:01:19.224Z,19.07
2023-05-02T18:03:47.520Z,19.03
2023-05-02T18:06:18.214Z,18.99
2023-05-02T18:08:45.401Z,18.94
2023-05-02T18:11:18.851Z,18.90
2023-05-02T18:13:45.967Z,18.86
2023-05-02T18:16:13.994Z,18.82
2023-05-02T18:18:41.429Z,18.78
2023-05-02T18:21:09.740Z,18.73
2023-05-02T18:23:36.715Z,18.69
2023-05-02T18:26:04.026Z,18.64
2023-05-02T18:28:30.935Z,18.58
2023-05-02T18:30:57.862Z,18.53
2023-05-02T18:33:24.767Z,18.48
2023-05-02T18:35:51.658Z,18.44
2023-05-02T18:38:19.756Z,18.39
2023-05-02T18:40:46.637Z,18.35
2023-05-02T18:43:15.907Z,18.30
2023-05-02T18:45:44.408Z,18.26
2023-05-02T18:48:11.381Z,18.21
2023-05-02T18:50:38.297Z,18.15
2023-05-02T18:53:05.131Z,18.07
2023-05-02T18:55:32.852Z,18.02
2023-05-02T18:57:59.810Z,17.98
2023-05-02T19:00:30.249Z,17.94
2023-05-02T19:02:57.488Z,17.91
2023-05-02T19:05:24.626Z,17.89
2023-05-02T19:07:51.433Z,17.84
2023-05-02T19:10:18.294Z,17.81
2023-05-02T19:12:46.372Z,17.78
2023-05-02T19:15:13.462Z,17.75
2023-05-02T19:17:40.421Z,17.72
2023-05-02T19:20:08.164Z,17.68
2023-05-02T19:22:37.156Z,17.63
2023-05-02T19:25:04.494Z,17.57
2023-05-02T19:27:31.618Z,17.51
2023-05-02T19:29:58.774Z,17.45
2023-05-02T19:32:25.807Z,17.39
2023-05-02T19:34:52.842Z,17.35
2023-05-02T19:37:19.740Z,17.30
2023-05-02T19:39:46.600Z,17.25
2023-05-02T19:42:13.605Z,17.19
2023-05-02T19:44:40.475Z,17.13
2023-05-02T19:47:07.608Z,17.06
2023-05-02T19:49:34.646Z,16.98
2023-05-02T19:52:01.500Z,16.93
2023-05-02T19:54:28.304Z,16.88
2023-05-02T19:56:55.322Z,16.82
2023-05-02T19:59:22.166Z,16.75
2023-05-02T20:01:49.321Z,16.68
2023-05-02T20:04:16.255Z,16.61
2023-05-02T20:06:43.175Z,16.54
2023-05-02T20:09:11.228Z,16.48
2023-05-02T20:11:38.149Z,16.41
2023-05-02T20:14:04.958Z,16.32
2023-05-02T20:16:32.344Z,16.25
2023-05-02T20:18:59.225Z,16.16
2023-05-02T20:21:26.832Z,16.09
2023-05-02T20:23:53.764Z,16.02
2023-05-02T20:26:23.504Z,15.97
2023-05-02T20:28:50.396Z,15.92
2023-05-02T20:37:23.652Z,15.69
2023-05-02T20:47:32.418Z,15.36
2023-05-02T20:49:59.545Z,15.29
2023-05-02T20:52:26.654Z,15.22
2023-05-02T20:54:53.870Z,15.18
2023-05-02T20:57:20.843Z,15.11
2023-05-02T20:59:47.788Z,15.04
2023-05-02T21:02:14.721Z,14.98
2023-05-02T21:04:42.387Z,14.90
2023-05-02T21:07:09.329Z,14.82
2023-05-02T21:09:36.215Z,14.73
2023-05-02T21:12:03.293Z,14.64
2023-05-02T21:14:30.155Z,14.57
2023-05-02T21:16:57.051Z,14.50
2023-05-02T21:19:23.965Z,14.42
2023-05-02T21:21:50.940Z,14.35
2023-05-02T21:24:17.990Z,14.26
2023-05-02T21:26:45.561Z,14.18
2023-05-02T21:29:13.965Z,14.13
2023-05-02T21:31:40.914Z,14.08
2023-05-02T21:34:10.234Z,14.02
